Time;durP1;ratioP1;P1;durP2;ratioP2;P2;SDS_P1;SDS_P2;PMS_P1;PMS_P2;Temp;Humidity;BMP_temperature;BMP_pressure;BME280_temperature;BME280_humidity;BME280_pressure;Samples;Min_cycle;Max_cycle;Signal;HPM_P1;HPM_P2
2023/06/19 00:00:46;;;;;;;4.70;4.30;;;;;;;;;;5072255;28;20600;-54
2023/06/19 00:03:12;;;;;;;6.30;4.17;;;;;;;;;;5071941;28;20432;-54
2023/06/19 00:05:38;;;;;;;4.80;4.30;;;;;;;;;;5072457;28;20220;-54
2023/06/19 00:08:06;;;;;;;5.40;4.90;;;;;;;;;;5072143;28;20298;-54
2023/06/19 00:10:32;;;;;;;4.90;4.43;;;;;;;;;;5072333;28;20565;-54
2023/06/19 00:12:59;;;;;;;5.00;4.50;;;;;;;;;;5071974;28;20279;-54
2023/06/19 00:15:25;;;;;;;4.87;4.47;;;;;;;;;;5071878;28;20200;-54
2023/06/19 00:17:51;;;;;;;4.67;4.27;;;;;;;;;;5072085;28;20242;-54
2023/06/19 00:20:17;;;;;;;5.87;4.50;;;;;;;;;;5070040;28;20205;-54
2023/06/19 00:22:43;;;;;;;4.47;4.07;;;;;;;;;;5070326;28;20585;-54
2023/06/19 00:25:10;;;;;;;4.50;4.07;;;;;;;;;;5071633;28;20238;-55
2023/06/19 00:27:36;;;;;;;6.07;4.60;;;;;;;;;;5071972;28;20249;-55
2023/06/19 00:30:05;;;;;;;4.97;4.50;;;;;;;;;;5071861;28;20270;-55
2023/06/19 00:32:31;;;;;;;5.03;4.50;;;;;;;;;;5072250;28;20200;-55
2023/06/19 00:34:57;;;;;;;4.90;4.37;;;;;;;;;;5071674;28;20673;-55
2023/06/19 00:37:23;;;;;;;4.73;4.33;;;;;;;;;;5071633;28;20196;-55
2023/06/19 00:39:49;;;;;;;4.63;4.20;;;;;;;;;;5071869;28;20196;-55
2023/06/19 00:42:15;;;;;;;4.80;4.40;;;;;;;;;;5071578;28;20196;-55
2023/06/19 00:44:42;;;;;;;4.60;4.20;;;;;;;;;;5071621;28;20670;-55
2023/06/19 00:47:09;;;;;;;4.50;4.10;;;;;;;;;;5071543;28;20224;-55
2023/06/19 00:49:35;;;;;;;4.37;4.03;;;;;;;;;;5071812;28;20211;-55
2023/06/19 00:52:02;;;;;;;4.57;3.97;;;;;;;;;;5071639;28;20592;-55
2023/06/19 00:54:29;;;;;;;4.80;3.87;;;;;;;;;;5071536;28;20199;-55
2023/06/19 00:56:55;;;;;;;4.53;4.10;;;;;;;;;;5070910;28;20564;-55
2023/06/19 00:59:22;;;;;;;4.50;4.10;;;;;;;;;;5071487;28;20192;-55
2023/06/19 01:01:48;;;;;;;4.97;4.57;;;;;;;;;;5071503;28;20191;-55
2023/06/19 01:04:15;;;;;;;4.60;4.20;;;;;;;;;;5071206;28;20745;-55
2023/06/19 01:06:44;;;;;;;4.73;4.33;;;;;;;;;;5071192;28;20259;-54
2023/06/19 01:09:12;;;;;;;4.97;4.27;;;;;;;;;;5071164;28;20204;-54
2023/06/19 01:11:40;;;;;;;5.40;4.30;;;;;;;;;;5071301;28;20184;-54
2023/06/19 01:14:07;;;;;;;5.50;5.00;;;;;;;;;;5071394;28;20197;-54
2023/06/19 01:16:33;;;;;;;6.23;4.60;;;;;;;;;;5071379;28;20260;-54
2023/06/19 01:19:00;;;;;;;4.93;4.40;;;;;;;;;;5071162;28;20199;-54
2023/06/19 01:21:27;;;;;;;5.63;4.30;;;;;;;;;;5071110;28;20198;-54
2023/06/19 01:23:55;;;;;;;5.60;4.33;;;;;;;;;;5071268;28;20203;-54
2023/06/19 01:26:27;;;;;;;4.90;4.40;;;;;;;;;;5070978;28;20772;-54
2023/06/19 01:28:54;;;;;;;5.27;4.23;;;;;;;;;;5071114;28;20202;-55
2023/06/19 01:31:22;;;;;;;6.73;4.60;;;;;;;;;;5071126;28;20207;-55
2023/06/19 01:33:50;;;;;;;5.17;4.30;;;;;;;;;;5071144;28;20196;-54
2023/06/19 01:36:18;;;;;;;5.30;4.80;;;;;;;;;;5070995;28;20286;-54
2023/06/19 01:38:44;;;;;;;6.03;4.50;;;;;;;;;;5070926;28;20700;-55
2023/06/19 01:41:12;;;;;;;4.50;4.10;;;;;;;;;;5070883;28;20563;-54
2023/06/19 01:43:38;;;;;;;4.73;4.23;;;;;;;;;;5070960;28;20199;-55
2023/06/19 01:46:04;;;;;;;5.63;4.40;;;;;;;;;;5070991;28;20562;-54
2023/06/19 01:48:31;;;;;;;5.00;4.50;;;;;;;;;;5070907;28;20258;-54
2023/06/19 01:50:57;;;;;;;6.03;4.53;;;;;;;;;;5070834;28;20458;-54
2023/06/19 01:53:23;;;;;;;4.70;4.23;;;;;;;;;;5070846;28;20614;-54
2023/06/19 01:55:49;;;;;;;4.90;4.40;;;;;;;;;;5070995;28;20608;-54
2023/06/19 01:58:16;;;;;;;4.80;4.40;;;;;;;;;;5070643;28;20203;-54
2023/06/19 02:00:43;;;;;;;5.57;4.67;;;;;;;;;;5071024;28;20207;-54
2023/06/19 02:03:09;;;;;;;4.77;4.37;;;;;;;;;;5070597;28;20192;-55
2023/06/19 02:05:39;;;;;;;4.90;4.50;;;;;;;;;;5070764;28;20221;-54
2023/06/19 02:08:05;;;;;;;5.60;4.53;;;;;;;;;;5071832;28;20242;-55
2023/06/19 02:10:31;;;;;;;5.60;4.50;;;;;;;;;;5074631;28;20198;-58
2023/06/19 02:12:57;;;;;;;5.90;4.20;;;;;;;;;;5074413;28;20206;-54
2023/06/19 02:15:24;;;;;;;4.53;4.13;;;;;;;;;;5074368;28;20569;-54
2023/06/19 02:17:54;;;;;;;5.07;4.67;;;;;;;;;;5074532;28;20666;-54
2023/06/19 02:20:20;;;;;;;7.33;4.57;;;;;;;;;;5074542;28;20199;-54
2023/06/19 02:22:46;;;;;;;4.93;4.43;;;;;;;;;;5074329;28;20210;-54
2023/06/19 02:25:13;;;;;;;4.80;4.30;;;;;;;;;;5073769;28;20292;-54
2023/06/19 02:27:39;;;;;;;4.40;4.10;;;;;;;;;;5074106;28;20315;-54
2023/06/19 02:30:05;;;;;;;4.77;4.30;;;;;;;;;;5074244;28;20643;-54
2023/06/19 02:32:33;;;;;;;4.70;4.30;;;;;;;;;;5074210;28;20199;-54
2023/06/19 02:34:59;;;;;;;4.80;4.40;;;;;;;;;;5074051;28;20204;-54
2023/06/19 02:37:25;;;;;;;4.77;4.20;;;;;;;;;;5073913;28;20204;-54
2023/06/19 02:39:51;;;;;;;5.30;4.80;;;;;;;;;;5074196;28;20204;-54
2023/06/19 02:42:17;;;;;;;4.90;4.50;;;;;;;;;;5073831;28;20574;-54
2023/06/19 02:44:43;;;;;;;5.20;4.70;;;;;;;;;;5073910;28;20207;-54
2023/06/19 02:47:09;;;;;;;5.57;5.03;;;;;;;;;;5073619;28;20584;-54
2023/06/19 02:49:36;;;;;;;4.87;3.97;;;;;;;;;;5074043;28;20223;-54
2023/06/19 02:52:02;;;;;;;5.03;4.53;;;;;;;;;;5073795;28;20226;-54
2023/06/19 02:54:28;;;;;;;5.57;4.03;;;;;;;;;;5073716;28;20205;-54
2023/06/19 02:56:56;;;;;;;4.80;4.40;;;;;;;;;;5073622;28;20271;-54
2023/06/19 02:59:22;;;;;;;5.67;4.53;;;;;;;;;;5073700;28;20192;-54
2023/06/19 03:01:48;;;;;;;4.83;4.23;;;;;;;;;;5073770;28;20206;-54
2023/06/19 03:04:14;;;;;;;4.50;4.10;;;;;;;;;;5073196;28;20351;-54
2023/06/19 03:06:41;;;;;;;5.07;4.67;;;;;;;;;;5073117;28;20216;-54
2023/06/19 03:09:11;;;;;;;4.90;4.17;;;;;;;;;;5072437;28;20559;-53
2023/06/19 03:11:38;;;;;;;5.03;4.63;;;;;;;;;;5073455;28;20199;-54
2023/06/19 03:14:07;;;;;;;5.50;4.70;;;;;;;;;;5073417;28;20187;-55
2023/06/19 03:16:33;;;;;;;4.33;3.93;;;;;;;;;;5073522;28;20205;-53
2023/06/19 03:18:59;;;;;;;4.80;4.40;;;;;;;;;;5073011;28;20454;-54
2023/06/19 03:21:25;;;;;;;4.43;4.07;;;;;;;;;;5073179;28;20196;-53
2023/06/19 03:23:52;;;;;;;5.27;4.83;;;;;;;;;;5073392;28;20208;-54
2023/06/19 03:26:19;;;;;;;5.03;4.63;;;;;;;;;;5072942;28;20315;-54
2023/06/19 03:28:46;;;;;;;5.27;4.20;;;;;;;;;;5073151;28;20207;-54
2023/06/19 03:31:12;;;;;;;4.77;4.33;;;;;;;;;;5073012;28;20221;-54
2023/06/19 03:33:38;;;;;;;4.83;4.43;;;;;;;;;;5073097;28;20658;-55
2023/06/19 03:36:05;;;;;;;4.77;4.20;;;;;;;;;;5073131;28;20192;-54
2023/06/19 03:38:31;;;;;;;4.97;4.57;;;;;;;;;;5073031;28;20205;-54
2023/06/19 03:40:59;;;;;;;4.87;4.47;;;;;;;;;;5072892;28;20666;-54
2023/06/19 03:43:25;;;;;;;6.50;4.80;;;;;;;;;;5072790;28;20298;-54
2023/06/19 03:45:51;;;;;;;5.20;4.80;;;;;;;;;;5073009;28;20290;-54
2023/06/19 03:48:17;;;;;;;5.13;4.63;;;;;;;;;;5072793;28;20741;-54
2023/06/19 03:50:43;;;;;;;5.13;4.57;;;;;;;;;;5072721;28;20439;-54
2023/06/19 03:53:09;;;;;;;6.10;4.40;;;;;;;;;;5072332;28;20204;-54
2023/06/19 03:55:35;;;;;;;5.33;4.23;;;;;;;;;;5072825;28;20211;-54
2023/06/19 03:58:02;;;;;;;6.23;4.60;;;;;;;;;;5072396;28;20218;-55
2023/06/19 04:00:28;;;;;;;5.37;4.40;;;;;;;;;;5072228;28;20763;-55
2023/06/19 04:02:54;;;;;;;4.60;4.20;;;;;;;;;;5072420;28;20195;-53
2023/06/19 04:05:20;;;;;;;6.57;4.23;;;;;;;;;;5072572;28;20215;-55
2023/06/19 04:07:46;;;;;;;6.33;4.63;;;;;;;;;;5072348;28;20258;-55
2023/06/19 04:10:12;;;;;;;5.37;4.70;;;;;;;;;;5072219;28;20640;-55
2023/06/19 04:12:40;;;;;;;4.67;4.27;;;;;;;;;;5072235;28;20203;-55
2023/06/19 04:15:08;;;;;;;5.37;4.47;;;;;;;;;;5072488;28;20203;-55
2023/06/19 04:17:34;;;;;;;6.07;5.17;;;;;;;;;;5072199;28;20714;-55
2023/06/19 04:20:00;;;;;;;4.93;4.50;;;;;;;;;;5072084;28;20195;-56
2023/06/19 04:22:26;;;;;;;5.93;4.90;;;;;;;;;;5072085;28;20200;-55
2023/06/19 04:24:52;;;;;;;4.43;4.13;;;;;;;;;;5071950;28;20239;-55
2023/06/19 04:27:18;;;;;;;4.90;4.40;;;;;;;;;;5071798;28;20273;-55
2023/06/19 04:29:44;;;;;;;4.70;4.30;;;;;;;;;;5071782;28;20200;-55
2023/06/19 04:32:14;;;;;;;5.07;4.23;;;;;;;;;;5071079;28;20240;-55
2023/06/19 04:34:45;;;;;;;5.23;4.80;;;;;;;;;;5071873;28;20202;-55
2023/06/19 04:37:12;;;;;;;4.97;4.30;;;;;;;;;;5071661;28;20204;-55
2023/06/19 04:39:38;;;;;;;4.53;4.07;;;;;;;;;;5071956;28;20200;-55
2023/06/19 04:42:04;;;;;;;4.83;4.43;;;;;;;;;;5071757;28;20225;-55
2023/06/19 04:44:33;;;;;;;4.73;4.33;;;;;;;;;;5071736;28;20626;-55
2023/06/19 04:47:01;;;;;;;6.00;4.90;;;;;;;;;;5071338;28;20222;-54
2023/06/19 04:49:32;;;;;;;5.03;4.63;;;;;;;;;;5071514;28;20193;-54
2023/06/19 04:51:58;;;;;;;5.73;4.40;;;;;;;;;;5071422;28;20192;-54
2023/06/19 04:54:25;;;;;;;5.07;4.67;;;;;;;;;;5071442;28;20214;-55
2023/06/19 04:56:53;;;;;;;4.90;4.40;;;;;;;;;;5071498;28;20200;-56
2023/06/19 04:59:19;;;;;;;5.93;4.77;;;;;;;;;;5071231;28;20238;-53
2023/06/19 05:01:45;;;;;;;4.73;4.33;;;;;;;;;;5071230;28;20199;-55
2023/06/19 05:04:11;;;;;;;5.97;5.10;;;;;;;;;;5071286;28;20261;-55
2023/06/19 05:06:38;;;;;;;6.10;4.87;;;;;;;;;;5071211;28;20321;-55
2023/06/19 05:09:04;;;;;;;6.03;4.70;;;;;;;;;;5071201;28;20799;-55
2023/06/19 05:11:30;;;;;;;6.07;4.27;;;;;;;;;;5070828;28;20695;-55
2023/06/19 05:13:56;;;;;;;5.10;4.70;;;;;;;;;;5071132;28;20445;-55
2023/06/19 05:16:23;;;;;;;5.03;4.53;;;;;;;;;;5070916;28;20195;-55
2023/06/19 05:18:51;;;;;;;5.67;4.90;;;;;;;;;;5071055;28;20196;-55
2023/06/19 05:21:17;;;;;;;4.90;4.50;;;;;;;;;;5070418;28;20219;-55
2023/06/19 05:23:47;;;;;;;4.90;4.47;;;;;;;;;;5071125;28;20216;-55
2023/06/19 05:26:13;;;;;;;5.00;4.50;;;;;;;;;;5070564;28;20323;-55
2023/06/19 05:28:39;;;;;;;4.80;4.40;;;;;;;;;;5071059;28;20195;-55
2023/06/19 05:31:05;;;;;;;6.13;4.57;;;;;;;;;;5071167;28;20225;-55
2023/06/19 05:33:31;;;;;;;5.07;4.57;;;;;;;;;;5070999;28;20557;-60
2023/06/19 05:35:57;;;;;;;5.70;4.97;;;;;;;;;;5070864;28;20282;-55
2023/06/19 05:38:25;;;;;;;6.07;5.47;;;;;;;;;;5070884;28;20673;-55
2023/06/19 05:40:53;;;;;;;5.40;4.90;;;;;;;;;;5071054;28;20233;-55
2023/06/19 05:43:19;;;;;;;7.43;4.70;;;;;;;;;;5074211;28;20257;-55
2023/06/19 05:45:45;;;;;;;5.77;4.73;;;;;;;;;;5075135;28;20229;-55
2023/06/19 05:48:11;;;;;;;6.10;4.57;;;;;;;;;;5074826;28;20247;-56
2023/06/19 05:50:36;;;;;;;5.23;4.77;;;;;;;;;;5075185;28;20689;-55
2023/06/19 05:53:02;;;;;;;5.07;4.57;;;;;;;;;;5074935;28;20230;-55
2023/06/19 05:55:28;;;;;;;5.43;4.90;;;;;;;;;;5074863;28;20203;-55
2023/06/19 05:57:56;;;;;;;5.37;4.90;;;;;;;;;;5074743;28;20203;-55
2023/06/19 06:00:22;;;;;;;5.70;5.20;;;;;;;;;;5074815;28;20205;-55
2023/06/19 06:02:49;;;;;;;5.53;5.03;;;;;;;;;;5074851;28;20571;-55
2023/06/19 06:05:15;;;;;;;5.43;4.93;;;;;;;;;;5074470;28;20276;-53
2023/06/19 06:07:41;;;;;;;4.90;4.50;;;;;;;;;;5074436;28;20223;-55
2023/06/19 06:10:07;;;;;;;5.97;5.47;;;;;;;;;;5074569;28;20204;-55
2023/06/19 06:12:34;;;;;;;7.37;5.20;;;;;;;;;;5074563;28;20219;-55
2023/06/19 06:15:02;;;;;;;6.17;4.63;;;;;;;;;;5074328;28;20746;-55
2023/06/19 06:17:28;;;;;;;5.70;5.07;;;;;;;;;;5074154;28;20203;-55
2023/06/19 06:19:54;;;;;;;6.47;4.93;;;;;;;;;;5074172;28;20201;-55
2023/06/19 06:22:20;;;;;;;5.80;5.10;;;;;;;;;;5074371;28;20564;-55
2023/06/19 06:24:46;;;;;;;5.53;5.00;;;;;;;;;;5074096;28;20237;-55
2023/06/19 06:27:12;;;;;;;5.70;5.03;;;;;;;;;;5074296;28;20257;-55
2023/06/19 06:29:38;;;;;;;5.93;5.43;;;;;;;;;;5074142;28;20256;-55
2023/06/19 06:32:07;;;;;;;5.67;5.17;;;;;;;;;;5074105;28;20204;-55
2023/06/19 06:34:33;;;;;;;6.17;5.57;;;;;;;;;;5074423;28;20204;-55
2023/06/19 06:36:59;;;;;;;7.80;4.97;;;;;;;;;;5073909;28;20662;-55
2023/06/19 06:39:25;;;;;;;5.83;5.30;;;;;;;;;;5073924;28;20258;-55
2023/06/19 06:41:51;;;;;;;5.87;5.37;;;;;;;;;;5074112;28;20203;-55
2023/06/19 06:44:17;;;;;;;6.20;5.60;;;;;;;;;;5073883;28;20200;-55
2023/06/19 06:46:43;;;;;;;5.37;4.67;;;;;;;;;;5073778;28;20227;-55
2023/06/19 06:49:11;;;;;;;5.43;4.80;;;;;;;;;;5073735;28;20199;-55
2023/06/19 06:51:37;;;;;;;5.80;5.30;;;;;;;;;;5074094;28;20204;-55
2023/06/19 06:54:03;;;;;;;5.70;5.20;;;;;;;;;;5073153;28;20249;-55
2023/06/19 06:56:29;;;;;;;6.07;5.47;;;;;;;;;;5073781;28;20222;-55
2023/06/19 06:58:55;;;;;;;5.80;5.30;;;;;;;;;;5067823;28;20444;-54
2023/06/19 07:01:21;;;;;;;5.60;5.07;;;;;;;;;;5072756;28;20211;-55
2023/06/19 07:03:47;;;;;;;6.00;5.20;;;;;;;;;;5073479;28;20671;-55
2023/06/19 07:06:14;;;;;;;6.20;5.60;;;;;;;;;;5073278;28;20215;-55
2023/06/19 07:08:41;;;;;;;6.60;6.00;;;;;;;;;;5071471;28;20250;-54
2023/06/19 07:11:07;;;;;;;5.53;5.03;;;;;;;;;;5071725;28;20200;-55
2023/06/19 07:13:33;;;;;;;5.50;5.00;;;;;;;;;;5073563;28;20200;-55
2023/06/19 07:16:01;;;;;;;6.17;5.57;;;;;;;;;;5073271;28;20481;-54
2023/06/19 07:18:27;;;;;;;6.97;5.40;;;;;;;;;;5073228;28;20198;-55
2023/06/19 07:20:53;;;;;;;6.73;5.20;;;;;;;;;;5073264;28;20544;-54
2023/06/19 07:23:20;;;;;;;8.57;5.30;;;;;;;;;;5073329;28;20197;-54
2023/06/19 07:25:47;;;;;;;5.13;4.73;;;;;;;;;;5072804;28;20764;-54
2023/06/19 07:28:13;;;;;;;7.53;5.53;;;;;;;;;;5072913;28;20659;-54
2023/06/19 07:30:39;;;;;;;7.67;5.57;;;;;;;;;;5073244;28;20281;-54
2023/06/19 07:33:05;;;;;;;6.10;5.50;;;;;;;;;;5073088;28;20201;-54
2023/06/19 07:35:31;;;;;;;5.90;5.40;;;;;;;;;;5072986;28;20292;-54
2023/06/19 07:37:57;;;;;;;8.30;5.70;;;;;;;;;;5072953;28;20285;-55
2023/06/19 07:40:25;;;;;;;6.00;5.50;;;;;;;;;;5072963;28;20220;-56
2023/06/19 07:42:51;;;;;;;6.70;6.00;;;;;;;;;;5073332;28;20197;-56
2023/06/19 07:45:17;;;;;;;7.43;5.60;;;;;;;;;;5072740;28;20195;-55
2023/06/19 07:47:43;;;;;;;7.40;5.77;;;;;;;;;;5072731;28;20837;-55
2023/06/19 07:50:09;;;;;;;6.00;5.50;;;;;;;;;;5072585;28;20203;-55
2023/06/19 07:52:35;;;;;;;8.80;5.63;;;;;;;;;;5072794;28;20593;-56
2023/06/19 07:55:01;;;;;;;6.30;5.70;;;;;;;;;;5072668;28;20218;-54
2023/06/19 07:57:28;;;;;;;5.50;5.10;;;;;;;;;;5072716;28;20196;-55
2023/06/19 07:59:55;;;;;;;5.83;5.20;;;;;;;;;;5072428;28;20222;-55
2023/06/19 08:02:21;;;;;;;5.87;5.37;;;;;;;;;;5072460;28;20191;-55
2023/06/19 08:04:47;;;;;;;5.23;4.80;;;;;;;;;;5071978;28;20217;-55
2023/06/19 08:07:13;;;;;;;5.97;5.07;;;;;;;;;;5071494;28;20223;-55
2023/06/19 08:09:39;;;;;;;5.70;5.20;;;;;;;;;;5072443;28;20666;-55
2023/06/19 08:12:06;;;;;;;5.50;4.93;;;;;;;;;;5072269;28;20200;-55
2023/06/19 08:14:33;;;;;;;7.10;4.97;;;;;;;;;;5061184;28;20239;-55
2023/06/19 08:16:59;;;;;;;6.40;4.70;;;;;;;;;;5072071;28;20199;-55
2023/06/19 08:19:25;;;;;;;5.40;4.67;;;;;;;;;;5071942;28;20681;-55
2023/06/19 08:21:52;;;;;;;5.13;4.63;;;;;;;;;;5072228;28;20207;-54
2023/06/19 08:24:18;;;;;;;5.80;4.90;;;;;;;;;;5071921;28;20246;-54
2023/06/19 08:26:44;;;;;;;6.30;4.50;;;;;;;;;;5070983;28;20261;-54
2023/06/19 08:29:10;;;;;;;4.90;4.50;;;;;;;;;;5068193;28;20197;-54
2023/06/19 08:31:37;;;;;;;5.23;4.73;;;;;;;;;;5071933;28;20663;-55
2023/06/19 08:34:06;;;;;;;5.40;5.00;;;;;;;;;;5072058;28;20203;-55
2023/06/19 08:36:33;;;;;;;5.33;4.80;;;;;;;;;;5071606;28;20224;-55
2023/06/19 08:38:59;;;;;;;4.80;4.40;;;;;;;;;;5071755;28;20256;-55
2023/06/19 08:41:25;;;;;;;5.43;4.93;;;;;;;;;;5071454;28;20593;-55
2023/06/19 08:43:51;;;;;;;4.60;4.20;;;;;;;;;;5071777;28;20199;-55
2023/06/19 08:46:18;;;;;;;4.77;4.37;;;;;;;;;;5071616;28;20404;-55
2023/06/19 08:48:45;;;;;;;6.87;4.77;;;;;;;;;;5071392;28;20234;-55
2023/06/19 08:51:13;;;;;;;4.23;3.83;;;;;;;;;;5071463;28;20586;-54
2023/06/19 08:53:44;;;;;;;6.90;3.83;;;;;;;;;;5071667;28;20680;-54
2023/06/19 08:56:10;;;;;;;5.03;4.40;;;;;;;;;;5071467;28;20204;-54
2023/06/19 08:58:37;;;;;;;4.50;3.87;;;;;;;;;;5071548;28;20264;-54
2023/06/19 09:01:03;;;;;;;4.77;3.43;;;;;;;;;;5071489;28;20198;-54
2023/06/19 09:03:29;;;;;;;9.03;3.60;;;;;;;;;;5071271;28;20283;-54
2023/06/19 09:05:56;;;;;;;3.33;3.03;;;;;;;;;;5071260;28;20242;-54
2023/06/19 09:08:22;;;;;;;6.70;3.50;;;;;;;;;;5071172;28;20829;-54
2023/06/19 09:10:58;;;;;;;4.80;3.90;;;;;;;;;;5071345;28;20200;-55
2023/06/19 09:13:24;;;;;;;3.63;3.33;;;;;;;;;;5063659;28;20231;-54
2023/06/19 09:15:58;;;;;;;4.00;3.60;;;;;;;;;;5071102;28;20225;-54
2023/06/19 09:18:24;;;;;;;4.83;3.83;;;;;;;;;;5070606;28;20203;-55
2023/06/19 09:20:52;;;;;;;6.03;3.70;;;;;;;;;;5071376;28;20201;-54
2023/06/19 09:23:20;;;;;;;5.40;3.00;;;;;;;;;;5070582;28;20207;-56
2023/06/19 09:25:46;;;;;;;4.53;3.30;;;;;;;;;;5070914;28;20231;-55
2023/06/19 09:28:18;;;;;;;4.10;3.70;;;;;;;;;;5070701;28;20227;-55
2023/06/19 09:30:51;;;;;;;7.57;3.53;;;;;;;;;;5070753;28;20502;-55
2023/06/19 09:33:17;;;;;;;3.00;2.80;;;;;;;;;;5065767;28;20203;-55
2023/06/19 09:35:43;;;;;;;4.10;3.37;;;;;;;;;;5047326;28;20200;-55
2023/06/19 09:38:09;;;;;;;6.10;3.70;;;;;;;;;;5050589;28;20207;-54
2023/06/19 09:40:37;;;;;;;4.07;3.00;;;;;;;;;;5050866;28;20191;-53
2023/06/19 09:43:05;;;;;;;6.30;3.37;;;;;;;;;;5050884;28;20294;-53
2023/06/19 09:45:31;;;;;;;6.30;3.33;;;;;;;;;;5050686;28;20230;-54
2023/06/19 09:47:57;;;;;;;3.77;3.47;;;;;;;;;;5050629;28;20759;-54
2023/06/19 09:50:27;;;;;;;5.57;3.70;;;;;;;;;;5051024;28;20230;-58
2023/06/19 09:52:53;;;;;;;4.53;3.30;;;;;;;;;;5050866;28;20203;-53
2023/06/19 09:55:19;;;;;;;3.63;3.10;;;;;;;;;;5050705;28;20277;-53
2023/06/19 09:57:48;;;;;;;3.40;3.10;;;;;;;;;;5050645;28;20202;-52
2023/06/19 10:00:19;;;;;;;5.70;3.37;;;;;;;;;;5050437;28;20206;-51
2023/06/19 10:02:46;;;;;;;3.50;3.20;;;;;;;;;;5050875;28;20206;-53
2023/06/19 10:05:14;;;;;;;4.23;3.10;;;;;;;;;;5050333;28;20234;-52
2023/06/19 10:07:42;;;;;;;4.53;3.70;;;;;;;;;;5050614;28;20235;-52
2023/06/19 10:10:09;;;;;;;3.47;3.17;;;;;;;;;;5050754;28;20293;-52
2023/06/19 10:12:36;;;;;;;3.20;3.00;;;;;;;;;;5050545;28;20645;-53
2023/06/19 10:15:15;;;;;;;3.67;3.27;;;;;;;;;;5050382;28;20229;-56
2023/06/19 10:17:51;;;;;;;3.20;2.90;;;;;;;;;;5050333;28;20297;-54
2023/06/19 10:20:25;;;;;;;4.00;2.90;;;;;;;;;;5050467;28;20197;-53
2023/06/19 10:22:51;;;;;;;3.30;2.73;;;;;;;;;;5047706;28;20341;-59
2023/06/19 10:25:20;;;;;;;2.93;2.73;;;;;;;;;;5069442;28;20743;-53
2023/06/19 10:27:46;;;;;;;3.07;2.87;;;;;;;;;;5070230;28;20230;-57
2023/06/19 10:30:19;;;;;;;5.57;3.07;;;;;;;;;;5068407;28;20199;-58
2023/06/19 10:32:45;;;;;;;3.97;2.80;;;;;;;;;;5073904;28;20347;-58
2023/06/19 10:35:12;;;;;;;3.03;2.70;;;;;;;;;;5073454;28;20468;-58
2023/06/19 10:37:38;;;;;;;5.70;2.80;;;;;;;;;;5073702;28;20202;-57
2023/06/19 10:40:09;;;;;;;2.87;2.50;;;;;;;;;;5073834;28;20229;-59
2023/06/19 10:42:35;;;;;;;2.67;2.40;;;;;;;;;;5073793;28;20213;-59
2023/06/19 10:45:03;;;;;;;3.27;2.53;;;;;;;;;;5073668;28;20245;-58
2023/06/19 10:47:30;;;;;;;6.40;2.70;;;;;;;;;;5073122;28;20219;-58
2023/06/19 10:49:57;;;;;;;2.97;2.43;;;;;;;;;;5073413;28;20676;-59
2023/06/19 10:52:24;;;;;;;3.37;2.33;;;;;;;;;;5073302;28;20198;-56
2023/06/19 10:54:54;;;;;;;2.03;1.87;;;;;;;;;;5073312;28;20665;-58
2023/06/19 10:57:26;;;;;;;3.23;2.30;;;;;;;;;;5073411;28;20206;-58
2023/06/19 10:59:53;;;;;;;3.90;2.10;;;;;;;;;;5073188;28;20198;-59
2023/06/19 11:02:19;;;;;;;2.97;2.03;;;;;;;;;;5073342;28;20614;-58
2023/06/19 11:04:46;;;;;;;2.23;2.03;;;;;;;;;;5073210;28;20339;-57
2023/06/19 11:07:12;;;;;;;2.23;2.03;;;;;;;;;;5071605;28;20269;-58
2023/06/19 11:09:38;;;;;;;2.40;2.20;;;;;;;;;;5073507;28;20195;-58
2023/06/19 11:12:07;;;;;;;4.77;2.37;;;;;;;;;;5073350;28;20226;-56
2023/06/19 11:14:39;;;;;;;2.53;1.83;;;;;;;;;;5073121;28;20211;-57
2023/06/19 11:17:06;;;;;;;4.73;2.20;;;;;;;;;;5073374;28;20195;-56
2023/06/19 11:19:35;;;;;;;2.00;1.90;;;;;;;;;;5073005;28;20253;-58
2023/06/19 11:22:03;;;;;;;3.13;2.20;;;;;;;;;;5073074;28;20291;-56
2023/06/19 11:24:29;;;;;;;2.23;1.80;;;;;;;;;;5072614;28;20202;-56
2023/06/19 11:26:58;;;;;;;5.63;2.27;;;;;;;;;;5072419;28;20687;-57
2023/06/19 11:29:25;;;;;;;3.03;1.90;;;;;;;;;;5070407;28;20203;-57
2023/06/19 11:31:53;;;;;;;2.80;2.30;;;;;;;;;;5071434;28;20198;-57
2023/06/19 11:34:19;;;;;;;2.73;2.07;;;;;;;;;;5072742;28;20209;-57
2023/06/19 11:36:45;;;;;;;2.20;2.00;;;;;;;;;;5072642;28;20225;-56
2023/06/19 11:39:14;;;;;;;2.50;1.80;;;;;;;;;;5069376;28;20198;-58
2023/06/19 11:41:40;;;;;;;2.00;1.80;;;;;;;;;;5072670;28;20227;-57
2023/06/19 11:44:08;;;;;;;2.43;1.93;;;;;;;;;;5072897;28;20201;-59
2023/06/19 11:46:35;;;;;;;3.20;1.60;;;;;;;;;;5072952;28;20205;-58
2023/06/19 11:49:11;;;;;;;3.00;1.80;;;;;;;;;;5072533;28;20712;-58
2023/06/19 11:51:38;;;;;;;3.13;2.30;;;;;;;;;;5072814;28;20271;-58
2023/06/19 11:54:06;;;;;;;2.00;1.70;;;;;;;;;;5073021;28;20198;-59
2023/06/19 11:56:34;;;;;;;2.20;2.00;;;;;;;;;;5072364;28;20203;-59
2023/06/19 11:59:00;;;;;;;3.20;2.10;;;;;;;;;;5072466;28;20199;-60
2023/06/19 12:01:26;;;;;;;3.57;2.20;;;;;;;;;;5072431;28;20248;-59
2023/06/19 12:03:52;;;;;;;3.87;1.90;;;;;;;;;;5072489;28;20328;-58
2023/06/19 12:06:18;;;;;;;2.60;1.90;;;;;;;;;;5072472;28;20263;-58
2023/06/19 12:08:44;;;;;;;2.40;2.20;;;;;;;;;;5072292;28;20305;-58
2023/06/19 12:11:10;;;;;;;1.90;1.80;;;;;;;;;;5072198;28;20205;-57
2023/06/19 12:13:38;;;;;;;3.30;1.90;;;;;;;;;;5072382;28;20679;-58
2023/06/19 12:16:03;;;;;;;2.63;2.20;;;;;;;;;;5072282;28;20679;-58
2023/06/19 12:18:29;;;;;;;2.90;2.13;;;;;;;;;;5071917;28;20198;-59
2023/06/19 12:20:55;;;;;;;2.97;2.07;;;;;;;;;;5071838;28;20560;-58
2023/06/19 12:23:21;;;;;;;3.47;2.03;;;;;;;;;;5072101;28;20197;-58
2023/06/19 12:25:47;;;;;;;4.70;2.10;;;;;;;;;;5071924;28;20245;-59
2023/06/19 12:28:18;;;;;;;3.17;2.17;;;;;;;;;;5071885;28;20278;-58
2023/06/19 12:30:45;;;;;;;2.00;1.90;;;;;;;;;;5072389;28;20228;-58
2023/06/19 12:33:11;;;;;;;2.57;2.37;;;;;;;;;;5071577;28;20581;-58
2023/06/19 12:35:39;;;;;;;2.20;2.00;;;;;;;;;;5071879;28;20201;-58
2023/06/19 12:38:06;;;;;;;2.53;2.20;;;;;;;;;;5071986;28;20251;-58
2023/06/19 12:40:32;;;;;;;2.50;2.30;;;;;;;;;;5071648;28;20222;-58
2023/06/19 12:42:58;;;;;;;2.60;2.40;;;;;;;;;;5071723;28;20204;-58
2023/06/19 12:45:24;;;;;;;3.43;2.30;;;;;;;;;;5071581;28;20261;-58
2023/06/19 12:47:52;;;;;;;2.43;2.23;;;;;;;;;;5071719;28;20223;-58
2023/06/19 12:50:18;;;;;;;3.90;2.30;;;;;;;;;;5071411;28;20308;-58
2023/06/19 12:52:44;;;;;;;2.93;2.20;;;;;;;;;;5070930;28;20209;-59
2023/06/19 12:55:10;;;;;;;2.20;2.00;;;;;;;;;;5071439;28;20209;-59
2023/06/19 12:57:36;;;;;;;3.50;2.93;;;;;;;;;;5071590;28;20664;-56
2023/06/19 13:00:05;;;;;;;3.83;2.23;;;;;;;;;;5071405;28;20612;-59
2023/06/19 13:02:31;;;;;;;3.43;2.27;;;;;;;;;;5071302;28;20280;-59
2023/06/19 13:04:59;;;;;;;2.77;2.57;;;;;;;;;;5071209;28;20282;-56
2023/06/19 13:07:25;;;;;;;2.67;2.30;;;;;;;;;;5071104;28;20238;-60
2023/06/19 13:09:51;;;;;;;2.63;2.10;;;;;;;;;;5071355;28;20579;-60
2023/06/19 13:12:17;;;;;;;2.73;2.53;;;;;;;;;;5071249;28;20202;-60
2023/06/19 13:14:43;;;;;;;2.50;2.30;;;;;;;;;;5071428;28;20275;-59
2023/06/19 13:17:09;;;;;;;2.57;2.37;;;;;;;;;;5071431;28;20707;-59
2023/06/19 13:19:35;;;;;;;2.33;2.13;;;;;;;;;;5071206;28;20206;-59
2023/06/19 13:22:02;;;;;;;3.87;2.27;;;;;;;;;;5071212;28;20206;-60
2023/06/19 13:24:28;;;;;;;2.60;2.40;;;;;;;;;;5071187;28;20214;-59
2023/06/19 13:26:54;;;;;;;2.87;2.30;;;;;;;;;;5070729;28;20728;-59
2023/06/19 13:29:20;;;;;;;2.73;2.40;;;;;;;;;;5071165;28;20213;-59
2023/06/19 13:31:47;;;;;;;2.47;2.27;;;;;;;;;;5071103;28;20208;-59
2023/06/19 13:34:13;;;;;;;2.87;2.53;;;;;;;;;;5070911;28;20646;-59
2023/06/19 13:36:39;;;;;;;3.13;2.30;;;;;;;;;;5070636;28;20292;-59
2023/06/19 13:39:07;;;;;;;2.80;2.60;;;;;;;;;;5071191;28;20211;-59
2023/06/19 13:41:34;;;;;;;2.90;2.60;;;;;;;;;;5070719;28;20232;-60
2023/06/19 13:44:00;;;;;;;5.27;2.70;;;;;;;;;;5070934;28;20201;-59
2023/06/19 13:46:26;;;;;;;2.70;2.50;;;;;;;;;;5070786;28;20192;-60
2023/06/19 13:48:52;;;;;;;4.57;2.60;;;;;;;;;;5070948;28;20216;-59
2023/06/19 13:51:18;;;;;;;6.03;2.87;;;;;;;;;;5070817;28;20211;-59
2023/06/19 13:53:45;;;;;;;3.13;2.40;;;;;;;;;;5070849;28;20235;-59
2023/06/19 13:56:12;;;;;;;2.90;2.70;;;;;;;;;;5070718;28;20262;-58
2023/06/19 13:58:38;;;;;;;3.00;2.20;;;;;;;;;;5070811;28;20193;-59
2023/06/19 14:01:05;;;;;;;2.73;2.20;;;;;;;;;;5070853;28;20193;-60
2023/06/19 14:03:31;;;;;;;11.13;3.10;;;;;;;;;;5072530;28;20203;-58
2023/06/19 14:05:57;;;;;;;5.17;2.53;;;;;;;;;;5074604;28;20216;-58
2023/06/19 14:08:24;;;;;;;9.80;3.00;;;;;;;;;;5074450;28;20221;-55
2023/06/19 14:10:50;;;;;;;2.80;2.20;;;;;;;;;;5074690;28;20239;-57
2023/06/19 14:13:17;;;;;;;6.23;2.20;;;;;;;;;;5074600;28;20644;-58
2023/06/19 14:15:44;;;;;;;3.73;2.47;;;;;;;;;;5074630;28;20228;-58
2023/06/19 14:18:10;;;;;;;2.37;2.17;;;;;;;;;;5074476;28;20219;-57
2023/06/19 14:20:36;;;;;;;4.57;2.40;;;;;;;;;;5074290;28;20645;-58
2023/06/19 14:23:02;;;;;;;2.47;2.20;;;;;;;;;;5074512;28;20226;-57
2023/06/19 14:25:28;;;;;;;2.40;2.20;;;;;;;;;;5073947;28;20621;-58
2023/06/19 14:27:54;;;;;;;3.63;1.87;;;;;;;;;;5074143;28;20228;-57
2023/06/19 14:30:21;;;;;;;2.03;1.93;;;;;;;;;;5074421;28;20197;-57
2023/06/19 14:32:48;;;;;;;2.33;2.13;;;;;;;;;;5074259;28;20206;-58
2023/06/19 14:35:14;;;;;;;1.97;1.80;;;;;;;;;;5074026;28;20203;-58
2023/06/19 14:37:40;;;;;;;3.30;2.30;;;;;;;;;;5074245;28;20193;-57
2023/06/19 14:40:06;;;;;;;2.97;2.40;;;;;;;;;;5074140;28;20259;-58